メインページ
METAR-TAF:

METAR-TAF

空港 :

アンカラ-エセンボーア, トルコ

エセンボーア国際空港

緯度: 40-07N, 経度: 032-59E, 海抜: 953m

現時点の気象観測

当レポートは35分前の05:50(UTC)に作成
変向風 1kt
気温 0°C
湿度 100%
気圧 1018 hPa
視程: 0150m
着氷性の霧

METAR: LTAC 140550Z VRB01KT 0150 R03R/0175U R21L/0150U R03L/0175U R21R/0150U FZFG NSC M00/M00 Q1018 NOSIG

時間: 09:25 (06:25 UTC)

予報

当レポートは1時間45分前の04:40(UTC)に作成
予報は14日の 06時(UTC)から 15日の 06時(UTC)まで有効
変向風 2kt
視程: 1000m
高度200ftの千切れ雲あり
散在霧
14日の 06時(UTC)から 14日の 08時(UTC)まで徐々に
視程: 2500m
高度1200ftの千切れ雲あり
14日の 08時(UTC)から 14日の 10時(UTC)まで徐々に
視程10km以上
高度4000ftの雲は散在している
14日の 15時(UTC)から 14日の 18時(UTC)まで徐々に
視程10km以上
1,500メートル以下は雲なし、積乱雲なし
15日の 02時(UTC)から 15日の 06時(UTC)まで一時的に
視程: 4000m

TAF: LTAC 140440Z 1406/1506 VRB02KT 1000 BCFG BKN002 BECMG 1406/1408 2500 BR BKN012 BECMG 1408/1410 9999 NSW SCT040 BECMG 1415/1418 CAVOK TEMPO 1502/1506 4000 BR

4,000以上の空港の気象観測と天気予報(METAR報とTAF報)

利用可能な観測所は地図上に黄色い丸と赤い丸で示す。

丸の上にカーソルを重ねると観測所名を参照できる。

次にクリックすると気象観測と天気予報を参照できる。

マップの切り替え:黒色「×」印の緑ボタンをクリックして拡大、「-」印の緑ボタンをクリックして縮小、緑色の三角印をクリックして隣りの地図に切り替え


METAR-TAF: